LFBH/LRH METAR and TAF weather

Enter ICAO airport designator
Station Type Date Time Source
LFBH METAR 2019/12/06 02:00 UTC NOAA

LFBH 060200Z AUTO VRB01KT 0300 R27/0350N FG VV/// 03/02 Q1023


Station Type Date Time Source
LFBH Decoded METAR 2019/12/06 02:00 UTC NOAA

La Rochelle, France (LFBH) 46-09N 001-09W 10M
Dec 05, 2019 - 09:00 PM EST / 2019.12.06 0200 UTC
Wind: Variable at 1 MPH (1 KT):0
Visibility: less than 1 mile:0
Sky conditions: obscured
Weather: fog
Temperature: 37 F (3 C)
Dew Point: 35 F (2 C)
Relative Humidity: 93%
Pressure (altimeter): 30.21 in. Hg (1023 hPa)
ob: LFBH 060200Z AUTO VRB01KT 0300 R27/0350N FG VV/// 03/02 Q1023
cycle: 2

Station Type Date Time Source
LFBH TAF 2019/12/05 18:21 UTC NOAA

TAF LFBH 051700Z 0518/0618 36005KT 4000 BR BKN003
TEMPO 0518/0522 1200 BR BKN001
BECMG 0522/0524 0500 FG VV///
BECMG 0610/0612 18010KT 8000 NSW BKN010
TEMPO 0612/0618 3000 RA BKN004

Example: see airport list